createdAt,value
2023-03-30T00:00:01.546Z,0
2023-03-30T00:01:01.688Z,0
2023-03-30T00:02:01.558Z,0
2023-03-30T00:03:01.602Z,0
2023-03-30T00:04:01.747Z,0
2023-03-30T00:05:01.604Z,0
2023-03-30T00:06:01.566Z,0
2023-03-30T00:07:01.553Z,0
2023-03-30T00:08:01.538Z,0
2023-03-30T00:09:01.539Z,0
2023-03-30T00:10:01.546Z,0
2023-03-30T00:11:01.836Z,0
2023-03-30T00:12:01.601Z,0
2023-03-30T00:13:01.541Z,0
2023-03-30T00:14:01.531Z,0
2023-03-30T00:15:01.525Z,0
2023-03-30T00:16:01.631Z,0
2023-03-30T00:17:01.573Z,0
2023-03-30T00:18:01.579Z,0
2023-03-30T00:19:01.546Z,0
2023-03-30T00:20:01.559Z,0
2023-03-30T00:21:01.703Z,0
2023-03-30T00:22:01.564Z,0
2023-03-30T00:23:01.532Z,0
2023-03-30T00:24:01.530Z,0
2023-03-30T00:25:01.533Z,0
2023-03-30T00:26:01.572Z,0
2023-03-30T00:27:01.567Z,0
2023-03-30T00:28:01.539Z,0
2023-03-30T00:29:01.526Z,0
2023-03-30T00:30:01.601Z,0
2023-03-30T00:31:01.811Z,0
2023-03-30T00:32:01.661Z,0
2023-03-30T00:33:01.575Z,0
2023-03-30T00:34:01.528Z,0
2023-03-30T00:35:01.555Z,0
2023-03-30T00:36:01.593Z,0
2023-03-30T00:37:01.585Z,0
2023-03-30T00:38:01.586Z,0
2023-03-30T00:39:01.530Z,0
2023-03-30T00:40:01.538Z,0
2023-03-30T00:41:01.701Z,0
2023-03-30T00:42:01.589Z,0
2023-03-30T00:43:01.550Z,0
2023-03-30T00:44:01.529Z,0
2023-03-30T00:45:01.533Z,0
2023-03-30T00:46:01.729Z,0
2023-03-30T00:47:01.535Z,0
2023-03-30T00:48:01.573Z,0
2023-03-30T00:49:01.553Z,0
2023-03-30T00:50:01.539Z,0
2023-03-30T00:51:01.787Z,0
2023-03-30T00:52:01.552Z,0
2023-03-30T00:53:01.537Z,0
2023-03-30T00:54:01.536Z,0
2023-03-30T00:55:01.568Z,0
2023-03-30T00:56:01.535Z,0
2023-03-30T00:57:01.596Z,0
2023-03-30T00:58:01.538Z,0
2023-03-30T00:59:01.552Z,0
2023-03-30T01:00:01.539Z,0
2023-03-30T01:01:01.746Z,0
2023-03-30T01:02:01.621Z,0
2023-03-30T01:03:01.577Z,0
2023-03-30T01:04:01.535Z,0
2023-03-30T01:05:01.528Z,0
2023-03-30T01:06:01.558Z,0
2023-03-30T01:07:01.558Z,0
2023-03-30T01:08:01.546Z,0
2023-03-30T01:09:01.557Z,0
2023-03-30T01:10:01.561Z,0
2023-03-30T01:11:01.861Z,0
2023-03-30T01:12:01.566Z,0
2023-03-30T01:13:01.574Z,0
2023-03-30T01:14:01.541Z,0
2023-03-30T01:15:01.534Z,0
2023-03-30T01:16:01.602Z,0
2023-03-30T01:17:01.571Z,0
2023-03-30T01:18:01.585Z,0
2023-03-30T01:19:01.539Z,0
2023-03-30T01:20:01.549Z,0
2023-03-30T01:21:01.651Z,0
2023-03-30T01:22:01.557Z,0
2023-03-30T01:23:01.534Z,0
2023-03-30T01:24:01.537Z,0
2023-03-30T01:25:01.542Z,0
2023-03-30T01:26:01.539Z,0
2023-03-30T01:27:01.549Z,0
2023-03-30T01:28:01.537Z,0
2023-03-30T01:29:01.539Z,0
2023-03-30T01:30:01.562Z,0
2023-03-30T01:31:01.752Z,0
2023-03-30T01:32:01.554Z,0
2023-03-30T01:33:01.598Z,0
2023-03-30T01:34:01.535Z,0
2023-03-30T01:35:01.628Z,0
2023-03-30T01:36:01.590Z,0
2023-03-30T01:37:01.552Z,0
2023-03-30T01:38:01.540Z,0
2023-03-30T01:39:01.545Z,0
2023-03-30T01:40:01.559Z,0
2023-03-30T01:41:01.821Z,0
2023-03-30T01:42:01.541Z,0
2023-03-30T01:43:01.543Z,0
2023-03-30T01:44:01.538Z,0
2023-03-30T01:45:01.537Z,0
2023-03-30T01:46:01.544Z,0
2023-03-30T01:47:01.664Z,0
2023-03-30T01:48:01.585Z,0
2023-03-30T01:49:01.572Z,0
2023-03-30T01:50:01.584Z,0
2023-03-30T01:51:01.856Z,0
2023-03-30T01:52:01.546Z,0
2023-03-30T01:53:01.541Z,0
2023-03-30T01:54:01.525Z,0
2023-03-30T01:55:01.542Z,0
2023-03-30T01:56:01.539Z,0
2023-03-30T01:57:01.656Z,0
2023-03-30T01:58:01.539Z,0
2023-03-30T01:59:01.537Z,0
2023-03-30T02:00:01.540Z,0
2023-03-30T02:01:01.751Z,0
2023-03-30T02:02:01.560Z,0
2023-03-30T02:03:01.597Z,0
2023-03-30T02:04:01.612Z,0
2023-03-30T02:05:01.548Z,0
2023-03-30T02:06:01.566Z,0
2023-03-30T02:07:01.555Z,0
2023-03-30T02:08:01.559Z,0
2023-03-30T02:09:01.534Z,0
2023-03-30T02:10:01.576Z,0
2023-03-30T02:11:01.905Z,0
2023-03-30T02:12:01.551Z,0
2023-03-30T02:13:01.542Z,0
2023-03-30T02:14:01.542Z,0
2023-03-30T02:15:01.533Z,0
2023-03-30T02:16:01.563Z,0
2023-03-30T02:17:01.579Z,0
2023-03-30T02:18:01.565Z,0
2023-03-30T02:19:01.531Z,0
2023-03-30T02:20:01.537Z,0
2023-03-30T02:21:01.721Z,0
2023-03-30T02:22:01.554Z,0
2023-03-30T02:23:01.543Z,0
2023-03-30T02:24:01.552Z,0
2023-03-30T02:25:01.575Z,0
2023-03-30T02:26:01.539Z,0
2023-03-30T02:27:01.574Z,0
2023-03-30T02:28:01.569Z,0
2023-03-30T02:29:01.555Z,0
2023-03-30T02:30:01.551Z,0
2023-03-30T02:31:01.653Z,0
2023-03-30T02:32:01.661Z,0
2023-03-30T02:33:01.600Z,0
2023-03-30T02:34:01.536Z,0
2023-03-30T02:35:01.543Z,0
2023-03-30T02:36:01.596Z,0
2023-03-30T02:37:01.556Z,0
2023-03-30T02:38:01.539Z,0
2023-03-30T02:39:01.541Z,0
2023-03-30T02:40:01.534Z,0
2023-03-30T02:41:01.718Z,0
2023-03-30T02:42:01.542Z,0
2023-03-30T02:43:01.538Z,0
2023-03-30T02:44:01.553Z,0
2023-03-30T02:45:01.536Z,0
2023-03-30T02:46:01.581Z,0
2023-03-30T02:47:01.569Z,0
2023-03-30T02:48:01.576Z,0
2023-03-30T02:49:01.538Z,0
2023-03-30T02:50:01.538Z,0
2023-03-30T02:51:01.672Z,0
2023-03-30T02:52:01.554Z,0
2023-03-30T02:53:01.543Z,0
2023-03-30T02:54:01.554Z,0
2023-03-30T02:55:01.560Z,0
2023-03-30T02:56:01.538Z,0
2023-03-30T02:57:01.576Z,0
2023-03-30T02:58:01.551Z,0
2023-03-30T02:59:01.531Z,0
2023-03-30T03:00:01.536Z,0
2023-03-30T03:01:01.850Z,0
2023-03-30T03:02:01.588Z,0
2023-03-30T03:03:01.644Z,0
2023-03-30T03:04:01.539Z,0
2023-03-30T03:05:01.534Z,0
2023-03-30T03:06:01.555Z,0
2023-03-30T03:07:01.552Z,0
2023-03-30T03:08:01.539Z,0
2023-03-30T03:09:01.543Z,0
2023-03-30T03:10:01.555Z,0
2023-03-30T03:11:01.875Z,0
2023-03-30T03:12:01.554Z,0
2023-03-30T03:13:01.562Z,0
2023-03-30T03:14:01.534Z,0
2023-03-30T03:15:01.534Z,0
2023-03-30T03:16:04.021Z,0
2023-03-30T03:17:01.630Z,0
2023-03-30T03:18:01.624Z,0
2023-03-30T03:19:01.543Z,0
2023-03-30T03:20:01.557Z,0
2023-03-30T03:21:01.892Z,0
2023-03-30T03:22:01.570Z,0
2023-03-30T03:23:01.541Z,0
2023-03-30T03:24:01.548Z,0
2023-03-30T03:25:01.538Z,0
2023-03-30T03:26:01.544Z,0
2023-03-30T03:27:01.566Z,0
2023-03-30T03:28:01.550Z,0
2023-03-30T03:29:01.540Z,0
2023-03-30T03:30:01.528Z,0
2023-03-30T03:31:01.800Z,0
2023-03-30T03:32:01.547Z,0
2023-03-30T03:33:01.576Z,0
2023-03-30T03:34:01.528Z,0
2023-03-30T03:35:01.530Z,0
2023-03-30T03:36:01.602Z,0
2023-03-30T03:37:01.545Z,0
2023-03-30T03:38:01.540Z,0
2023-03-30T03:39:01.528Z,0
2023-03-30T03:40:01.537Z,0
2023-03-30T03:41:01.656Z,0
2023-03-30T03:42:01.607Z,0
2023-03-30T03:43:01.533Z,0
2023-03-30T03:44:01.533Z,0
2023-03-30T03:45:01.525Z,0
2023-03-30T03:46:01.554Z,0
2023-03-30T03:47:01.576Z,0
2023-03-30T03:48:01.544Z,0
2023-03-30T03:49:01.539Z,0
2023-03-30T03:50:01.546Z,0
2023-03-30T03:51:01.716Z,0
2023-03-30T03:52:01.563Z,0
2023-03-30T03:53:01.545Z,0
2023-03-30T03:54:01.531Z,0
2023-03-30T03:55:01.531Z,0
2023-03-30T03:56:01.541Z,0
2023-03-30T03:57:01.659Z,0
2023-03-30T03:58:01.534Z,0
2023-03-30T03:59:01.532Z,0
2023-03-30T04:00:01.547Z,0
2023-03-30T04:01:01.822Z,0
2023-03-30T04:02:01.613Z,0
2023-03-30T04:03:01.570Z,0
2023-03-30T04:04:01.533Z,0
2023-03-30T04:05:01.564Z,0
2023-03-30T04:06:01.582Z,0
2023-03-30T04:07:01.562Z,0
2023-03-30T04:08:01.568Z,0
2023-03-30T04:09:01.531Z,0
2023-03-30T04:10:01.534Z,0
2023-03-30T04:11:01.560Z,0
2023-03-30T04:12:01.549Z,0
2023-03-30T04:13:01.542Z,0
2023-03-30T04:14:01.557Z,0
2023-03-30T04:15:01.548Z,0
2023-03-30T04:16:01.551Z,0
2023-03-30T04:17:01.557Z,0
2023-03-30T04:18:01.562Z,0
2023-03-30T04:19:01.535Z,0
2023-03-30T04:20:01.550Z,0
2023-03-30T04:21:01.685Z,0
2023-03-30T04:22:01.556Z,1
2023-03-30T04:23:01.534Z,1
2023-03-30T04:24:01.531Z,1
2023-03-30T04:25:01.529Z,3
2023-03-30T04:26:01.550Z,3
2023-03-30T04:27:01.560Z,5
2023-03-30T04:28:01.544Z,5
2023-03-30T04:29:01.538Z,7
2023-03-30T04:30:01.540Z,9
2023-03-30T04:31:01.928Z,12
2023-03-30T04:32:01.580Z,14
2023-03-30T04:33:01.572Z,18
2023-03-30T04:34:01.539Z,22
2023-03-30T04:35:01.532Z,25
2023-03-30T04:36:01.605Z,29
2023-03-30T04:37:01.552Z,35
2023-03-30T04:38:01.536Z,40
2023-03-30T04:39:01.542Z,46
2023-03-30T04:40:01.535Z,51
2023-03-30T04:41:01.710Z,58
2023-03-30T04:42:01.566Z,64
2023-03-30T04:43:01.546Z,73
2023-03-30T04:44:01.528Z,82
2023-03-30T04:45:01.569Z,94
2023-03-30T04:46:01.576Z,103
2023-03-30T04:47:01.559Z,114
2023-03-30T04:48:01.566Z,125
2023-03-30T04:49:01.540Z,138
2023-03-30T04:50:01.548Z,154
2023-03-30T04:51:01.656Z,171
2023-03-30T04:52:01.561Z,189
2023-03-30T04:53:01.550Z,210
2023-03-30T04:54:01.555Z,234
2023-03-30T04:55:01.543Z,254
2023-03-30T04:56:01.557Z,278
2023-03-30T04:57:01.591Z,298
2023-03-30T04:58:01.537Z,320
2023-03-30T04:59:01.557Z,348
2023-03-30T05:00:01.579Z,374
2023-03-30T05:01:01.596Z,401
2023-03-30T05:02:01.594Z,431
2023-03-30T05:03:01.678Z,458
2023-03-30T05:04:01.584Z,481
2023-03-30T05:05:01.543Z,510
2023-03-30T05:06:01.564Z,541
2023-03-30T05:07:01.551Z,582
2023-03-30T05:08:01.541Z,582
2023-03-30T05:09:01.539Z,582
2023-03-30T05:10:01.548Z,674
2023-03-30T05:11:01.570Z,731
2023-03-30T05:12:01.577Z,785
2023-03-30T05:13:01.549Z,823
2023-03-30T05:14:01.535Z,855
2023-03-30T05:15:01.538Z,881
2023-03-30T05:16:01.558Z,903
2023-03-30T05:17:01.612Z,919
2023-03-30T05:18:01.586Z,947
2023-03-30T05:19:01.537Z,973
2023-03-30T05:20:01.546Z,1008
2023-03-30T05:21:01.926Z,1035
2023-03-30T05:22:01.549Z,1067
2023-03-30T05:23:01.530Z,1098
2023-03-30T05:24:01.538Z,1131
2023-03-30T05:25:01.539Z,1168
2023-03-30T05:26:01.609Z,1207
2023-03-30T05:27:01.556Z,1251
2023-03-30T05:28:01.539Z,1282
2023-03-30T05:29:01.541Z,1308
2023-03-30T05:30:01.538Z,1328
2023-03-30T05:31:01.657Z,1330
2023-03-30T05:32:01.560Z,1327
2023-03-30T05:33:01.592Z,1325
2023-03-30T05:34:01.539Z,1338
2023-03-30T05:35:01.554Z,1360
2023-03-30T05:36:01.599Z,1387
2023-03-30T05:37:01.569Z,1422
2023-03-30T05:38:01.538Z,1461
2023-03-30T05:39:01.541Z,1518
2023-03-30T05:40:01.554Z,1566
2023-03-30T05:41:01.616Z,1612
2023-03-30T05:42:01.553Z,1681
2023-03-30T05:43:01.536Z,1754
2023-03-30T05:44:01.536Z,1859
2023-03-30T05:45:01.558Z,1957
2023-03-30T05:46:01.584Z,2062
2023-03-30T05:47:01.554Z,2154
2023-03-30T05:48:01.585Z,2173
2023-03-30T05:49:01.572Z,2115
2023-03-30T05:50:01.527Z,2033
2023-03-30T05:51:02.565Z,2066
2023-03-30T05:52:01.548Z,2151
2023-03-30T05:53:01.553Z,2270
2023-03-30T05:54:01.541Z,2368
2023-03-30T05:55:01.555Z,2438
2023-03-30T05:56:01.537Z,2490
2023-03-30T05:57:01.575Z,2528
2023-03-30T05:58:01.535Z,2517
2023-03-30T05:59:01.535Z,2527
2023-03-30T06:00:01.559Z,2571
2023-03-30T06:01:01.574Z,2709
2023-03-30T06:02:01.553Z,2868
2023-03-30T06:03:01.630Z,2976
2023-03-30T06:04:01.594Z,3100
2023-03-30T06:05:01.690Z,3225
2023-03-30T06:06:01.549Z,3273
2023-03-30T06:07:01.550Z,3220
2023-03-30T06:08:01.539Z,3067
2023-03-30T06:09:01.543Z,3067
2023-03-30T06:10:01.606Z,2840
2023-03-30T06:11:01.733Z,2849
2023-03-30T06:12:01.553Z,3050
2023-03-30T06:13:01.548Z,2757
2023-03-30T06:14:01.534Z,2890
2023-03-30T06:15:01.549Z,1850
2023-03-30T06:16:03.277Z,1655
2023-03-30T06:17:01.621Z,1553
2023-03-30T06:18:01.600Z,1491
2023-03-30T06:19:01.557Z,1492
2023-03-30T06:20:01.537Z,1504
2023-03-30T06:21:01.811Z,1531
2023-03-30T06:22:01.551Z,1529
2023-03-30T06:23:01.540Z,1603
2023-03-30T06:24:01.542Z,1728
2023-03-30T06:25:01.532Z,1889
2023-03-30T06:26:01.538Z,2045
2023-03-30T06:27:01.573Z,2173
2023-03-30T06:28:01.716Z,2268
2023-03-30T06:29:01.533Z,2355
2023-03-30T06:30:01.605Z,2442
2023-03-30T06:31:01.711Z,2521
2023-03-30T06:32:01.608Z,2637
2023-03-30T06:33:01.564Z,2814
2023-03-30T06:34:01.541Z,3098
2023-03-30T06:35:01.537Z,3505
2023-03-30T06:36:01.585Z,3994
2023-03-30T06:37:01.545Z,4506
2023-03-30T06:38:01.536Z,4937
2023-03-30T06:39:01.529Z,5350
2023-03-30T06:40:01.550Z,5632
2023-03-30T06:41:01.816Z,5807
2023-03-30T06:42:01.544Z,5830
2023-03-30T06:43:01.532Z,6276
2023-03-30T06:44:01.539Z,6384
2023-03-30T06:45:01.537Z,5745
2023-03-30T06:46:01.596Z,5476
2023-03-30T06:47:01.545Z,5334
2023-03-30T06:48:01.569Z,5308
2023-03-30T06:49:01.531Z,5454
2023-03-30T06:50:01.528Z,5809
2023-03-30T06:51:01.785Z,6088
2023-03-30T06:52:04.398Z,6124
2023-03-30T06:53:01.528Z,6263
2023-03-30T06:54:01.540Z,6324
2023-03-30T06:55:01.569Z,6279
2023-03-30T06:56:01.549Z,6312
2023-03-30T06:57:01.620Z,6318
2023-03-30T06:58:01.538Z,6410
2023-03-30T06:59:01.531Z,6381
2023-03-30T07:00:01.533Z,6589
2023-03-30T07:01:01.714Z,6600
2023-03-30T07:02:01.547Z,6884
2023-03-30T07:03:01.594Z,7308
2023-03-30T07:04:01.612Z,8917
2023-03-30T07:05:01.527Z,8110
2023-03-30T07:06:01.549Z,9228
2023-03-30T07:07:01.550Z,10574
2023-03-30T07:08:01.521Z,8646
2023-03-30T07:09:01.543Z,8646
2023-03-30T07:10:01.569Z,11263
2023-03-30T07:11:01.650Z,11484
2023-03-30T07:12:01.544Z,11103
2023-03-30T07:13:01.527Z,11304
2023-03-30T07:14:01.557Z,11350
2023-03-30T07:15:01.532Z,9916
2023-03-30T07:16:01.535Z,8910
2023-03-30T07:17:01.587Z,8255
2023-03-30T07:18:01.570Z,7479
2023-03-30T07:19:01.536Z,7160
2023-03-30T07:20:01.548Z,6224
2023-03-30T07:21:01.745Z,5892
2023-03-30T07:22:01.549Z,5914
2023-03-30T07:23:01.536Z,5771
2023-03-30T07:24:01.536Z,5745
2023-03-30T07:25:01.534Z,5754
2023-03-30T07:26:01.551Z,5686
2023-03-30T07:27:01.545Z,5551
2023-03-30T07:28:01.528Z,5559
2023-03-30T07:29:01.524Z,5557
2023-03-30T07:30:10.243Z,5564
2023-03-30T07:31:01.630Z,5444
2023-03-30T07:32:01.578Z,5463
2023-03-30T07:33:01.609Z,5457
2023-03-30T07:34:01.537Z,5555
2023-03-30T07:35:01.534Z,5354
2023-03-30T07:36:01.607Z,5022
2023-03-30T07:37:01.554Z,4904
2023-03-30T07:38:03.596Z,4958
2023-03-30T07:39:01.541Z,5000
2023-03-30T07:40:01.561Z,5059
2023-03-30T07:41:01.787Z,5111
2023-03-30T07:42:01.557Z,5184
2023-03-30T07:43:01.533Z,5236
2023-03-30T07:44:01.538Z,5254
2023-03-30T07:45:01.527Z,5229
2023-03-30T07:46:01.612Z,5164
2023-03-30T07:47:01.549Z,5054
2023-03-30T07:48:01.572Z,4882
2023-03-30T07:49:01.532Z,4766
2023-03-30T07:50:01.537Z,4819
2023-03-30T07:51:01.784Z,5019
2023-03-30T07:52:01.567Z,5433
2023-03-30T07:53:01.520Z,5922
2023-03-30T07:54:01.530Z,6572
2023-03-30T07:55:01.535Z,7794
2023-03-30T07:56:01.536Z,8677
2023-03-30T07:57:01.627Z,9531
2023-03-30T07:58:01.545Z,9512
2023-03-30T07:59:01.998Z,10974
2023-03-30T08:00:01.537Z,12201
2023-03-30T08:01:01.725Z,13728
2023-03-30T08:02:01.558Z,14393
2023-03-30T08:03:01.731Z,12896
2023-03-30T08:04:01.668Z,8650
2023-03-30T08:05:01.643Z,7658
2023-03-30T08:06:01.564Z,8806
2023-03-30T08:07:01.535Z,7249
2023-03-30T08:08:01.715Z,6670
2023-03-30T08:09:01.533Z,6670
2023-03-30T08:10:01.528Z,7225
2023-03-30T08:11:01.683Z,7116
2023-03-30T08:12:01.547Z,6644
2023-03-30T08:13:01.539Z,6185
2023-03-30T08:14:01.532Z,6040
2023-03-30T08:15:01.517Z,6296
2023-03-30T08:16:01.612Z,6701
2023-03-30T08:17:01.536Z,7160
2023-03-30T08:18:01.582Z,8593
2023-03-30T08:19:01.536Z,12111
2023-03-30T08:20:01.536Z,17418
2023-03-30T08:21:01.621Z,17434
2023-03-30T08:22:01.571Z,17139
2023-03-30T08:23:01.553Z,9300
2023-03-30T08:24:01.536Z,13766
2023-03-30T08:25:01.520Z,10139
2023-03-30T08:26:01.546Z,15412
2023-03-30T08:27:01.553Z,16819
2023-03-30T08:28:01.538Z,17256
2023-03-30T08:29:01.534Z,13132
2023-03-30T08:30:01.531Z,15014
2023-03-30T08:31:01.672Z,14590
2023-03-30T08:32:01.700Z,16817
2023-03-30T08:33:01.693Z,18159
2023-03-30T08:34:01.549Z,18562
2023-03-30T08:35:01.540Z,18704
2023-03-30T08:36:01.623Z,19877
2023-03-30T08:37:01.560Z,13060
2023-03-30T08:38:01.529Z,14743
2023-03-30T08:39:01.523Z,17982
2023-03-30T08:40:01.545Z,18229
2023-03-30T08:41:01.738Z,17703
2023-03-30T08:42:01.547Z,17858
2023-03-30T08:43:01.525Z,18796
2023-03-30T08:44:01.535Z,17361
2023-03-30T08:45:01.532Z,16898
2023-03-30T08:46:01.638Z,18188
2023-03-30T08:47:01.541Z,16769
2023-03-30T08:48:01.618Z,18699
2023-03-30T08:49:01.533Z,18942
2023-03-30T08:50:01.572Z,15517
2023-03-30T08:51:01.610Z,12085
2023-03-30T08:52:03.127Z,10889
2023-03-30T08:53:01.548Z,10084
2023-03-30T08:54:01.600Z,8865
2023-03-30T08:55:01.524Z,8327
2023-03-30T08:56:01.534Z,6934
2023-03-30T08:57:01.636Z,7013
2023-03-30T08:58:01.532Z,7555
2023-03-30T08:59:01.531Z,9262
2023-03-30T09:00:01.529Z,10906
2023-03-30T09:01:01.589Z,7723
2023-03-30T09:02:01.552Z,13567
2023-03-30T09:03:01.559Z,5995
2023-03-30T09:04:01.526Z,5446
2023-03-30T09:05:01.601Z,5142
2023-03-30T09:06:01.553Z,5214
2023-03-30T09:07:01.551Z,5560
2023-03-30T09:08:01.533Z,6086
2023-03-30T09:09:01.547Z,6086
2023-03-30T09:10:01.538Z,7461
2023-03-30T09:11:01.755Z,7710
2023-03-30T09:12:01.543Z,12734
2023-03-30T09:13:01.532Z,8473
2023-03-30T09:14:01.536Z,8246
2023-03-30T09:15:01.549Z,8382
2023-03-30T09:16:01.534Z,8605
2023-03-30T09:17:01.663Z,8174
2023-03-30T09:18:01.584Z,8193
2023-03-30T09:19:01.562Z,8064
2023-03-30T09:20:01.523Z,7975
2023-03-30T09:21:01.654Z,7424
2023-03-30T09:22:01.549Z,7072
2023-03-30T09:23:01.527Z,6777
2023-03-30T09:24:01.550Z,6624
2023-03-30T09:25:01.527Z,6970
2023-03-30T09:26:01.746Z,7426
2023-03-30T09:27:01.542Z,7682
2023-03-30T09:28:01.531Z,7920
2023-03-30T09:29:01.526Z,8032
2023-03-30T09:30:01.534Z,6932
2023-03-30T09:31:01.545Z,5960
2023-03-30T09:32:01.572Z,5107
2023-03-30T09:33:01.562Z,4436
2023-03-30T09:34:01.534Z,4031
2023-03-30T09:35:01.565Z,3996
2023-03-30T09:36:01.715Z,4062
2023-03-30T09:37:01.543Z,3953
2023-03-30T09:38:01.532Z,3778
2023-03-30T09:39:01.530Z,3546
2023-03-30T09:40:01.535Z,3266
2023-03-30T09:41:01.721Z,3162
2023-03-30T09:42:01.564Z,3240
2023-03-30T09:43:01.522Z,3385
2023-03-30T09:44:01.536Z,3304
2023-03-30T09:45:01.542Z,3043
2023-03-30T09:46:01.628Z,2844
2023-03-30T09:47:01.539Z,2816
2023-03-30T09:48:01.538Z,2980
2023-03-30T09:49:01.549Z,3039
2023-03-30T09:50:01.543Z,2984
2023-03-30T09:51:01.589Z,2997
2023-03-30T09:52:01.563Z,3074
2023-03-30T09:53:01.525Z,3094
2023-03-30T09:54:01.541Z,3164
2023-03-30T09:55:01.525Z,3251
2023-03-30T09:56:01.730Z,3408
2023-03-30T09:57:01.617Z,3456
2023-03-30T09:58:01.539Z,3212
2023-03-30T09:59:01.529Z,2825
2023-03-30T10:00:01.606Z,2482
2023-03-30T10:01:01.567Z,2274
2023-03-30T10:02:01.595Z,2114
2023-03-30T10:03:01.640Z,2036
2023-03-30T10:04:01.693Z,1944
2023-03-30T10:05:01.589Z,1808
2023-03-30T10:06:01.649Z,1751
2023-03-30T10:07:12.822Z,1703
2023-03-30T10:08:01.538Z,1620
2023-03-30T10:09:01.524Z,1620
2023-03-30T10:10:01.547Z,1607
2023-03-30T10:11:01.533Z,1756
2023-03-30T10:12:01.551Z,2036
2023-03-30T10:13:01.532Z,2278
2023-03-30T10:14:01.534Z,2388
2023-03-30T10:15:01.553Z,2370
2023-03-30T10:16:01.610Z,2399
2023-03-30T10:17:01.562Z,2552
2023-03-30T10:18:01.561Z,2692
2023-03-30T10:19:01.535Z,2818
2023-03-30T10:20:13.103Z,2888
2023-03-30T10:21:01.560Z,2919
2023-03-30T10:22:01.555Z,2794
2023-03-30T10:23:01.551Z,2683
2023-03-30T10:24:01.544Z,2447
2023-03-30T10:25:01.544Z,2348
2023-03-30T10:26:01.702Z,2278
2023-03-30T10:27:01.543Z,2250
2023-03-30T10:28:01.552Z,2259
2023-03-30T10:29:01.536Z,2202
2023-03-30T10:30:01.540Z,2095
2023-03-30T10:31:01.566Z,2115
2023-03-30T10:32:01.551Z,2092
2023-03-30T10:33:01.567Z,2128
2023-03-30T10:34:01.568Z,2213
2023-03-30T10:35:01.580Z,2104
2023-03-30T10:36:01.693Z,2191
2023-03-30T10:37:01.544Z,2324
2023-03-30T10:38:01.532Z,2471
2023-03-30T10:39:01.542Z,2331
2023-03-30T10:40:01.541Z,2162
2023-03-30T10:41:01.537Z,2084
2023-03-30T10:42:01.559Z,2064
2023-03-30T10:43:01.533Z,2104
2023-03-30T10:44:01.542Z,2069
2023-03-30T10:45:01.541Z,2108
2023-03-30T10:46:12.623Z,2202
2023-03-30T10:47:01.585Z,2350
2023-03-30T10:48:01.589Z,2372
2023-03-30T10:49:01.545Z,2427
2023-03-30T10:50:01.544Z,2538
2023-03-30T10:51:01.549Z,2630
2023-03-30T10:52:01.562Z,2654
2023-03-30T10:53:01.535Z,2777
2023-03-30T10:54:01.547Z,2888
2023-03-30T10:55:01.536Z,3048
2023-03-30T10:56:01.565Z,3103
2023-03-30T10:57:01.578Z,2938
2023-03-30T10:58:01.540Z,2834
2023-03-30T10:59:01.550Z,2764
2023-03-30T11:00:01.563Z,2656
2023-03-30T11:01:01.564Z,2517
2023-03-30T11:02:01.552Z,2462
2023-03-30T11:03:01.580Z,2320
2023-03-30T11:04:12.469Z,2289
2023-03-30T11:05:01.536Z,2287
2023-03-30T11:06:01.612Z,2340
2023-03-30T11:07:01.567Z,2364
2023-03-30T11:08:01.534Z,2405
2023-03-30T11:09:01.525Z,2405
2023-03-30T11:10:01.572Z,2527
2023-03-30T11:11:01.535Z,2547
2023-03-30T11:12:01.580Z,2521
2023-03-30T11:13:01.532Z,2515
2023-03-30T11:14:01.540Z,2582
2023-03-30T11:15:01.571Z,2558
2023-03-30T11:16:01.626Z,2527
2023-03-30T11:17:01.646Z,2527
2023-03-30T11:18:01.659Z,2527
2023-03-30T11:19:01.550Z,2536
2023-03-30T11:20:01.538Z,2538
2023-03-30T11:21:01.559Z,2556
2023-03-30T11:22:01.549Z,2545
2023-03-30T11:23:01.551Z,2512
2023-03-30T11:24:01.536Z,2447
2023-03-30T11:25:01.532Z,2438
2023-03-30T11:26:01.543Z,2444
2023-03-30T11:27:01.560Z,2460
2023-03-30T11:28:01.540Z,2479
2023-03-30T11:29:01.536Z,2523
2023-03-30T11:30:01.549Z,2495
2023-03-30T11:31:01.536Z,2573
2023-03-30T11:32:01.621Z,2635
2023-03-30T11:33:01.608Z,2571
2023-03-30T11:34:01.549Z,2621
2023-03-30T11:35:01.550Z,2925
2023-03-30T11:36:01.613Z,3092
2023-03-30T11:37:01.554Z,3046
2023-03-30T11:38:01.542Z,3144
2023-03-30T11:39:01.538Z,3234
2023-03-30T11:40:01.547Z,3264
2023-03-30T11:41:01.544Z,3279
2023-03-30T11:42:01.559Z,3319
2023-03-30T11:43:01.564Z,3328
2023-03-30T11:44:01.543Z,3334
2023-03-30T11:45:01.542Z,3336
2023-03-30T11:46:03.822Z,3343
2023-03-30T11:47:01.556Z,3365
2023-03-30T11:48:01.586Z,3391
2023-03-30T11:49:01.553Z,3520
2023-03-30T11:50:01.539Z,3656
2023-03-30T11:51:01.567Z,3809
2023-03-30T11:52:01.593Z,4077
2023-03-30T11:53:01.536Z,4147
2023-03-30T11:54:01.532Z,4156
2023-03-30T11:55:03.981Z,4058
2023-03-30T11:56:01.582Z,4086
2023-03-30T11:57:01.634Z,4149
2023-03-30T11:58:02.615Z,4043
2023-03-30T11:59:01.547Z,3911
2023-03-30T12:00:01.553Z,3771
2023-03-30T12:01:01.541Z,3636
2023-03-30T12:02:01.549Z,3468
2023-03-30T12:03:01.673Z,3282
2023-03-30T12:04:01.654Z,3161
2023-03-30T12:05:01.703Z,3295
2023-03-30T12:06:01.607Z,3586
2023-03-30T12:07:01.551Z,3889
2023-03-30T12:08:01.536Z,4193
2023-03-30T12:09:01.541Z,4193
2023-03-30T12:10:04.077Z,4508
2023-03-30T12:11:01.594Z,4622
2023-03-30T12:12:01.547Z,4716
2023-03-30T12:13:01.536Z,4827
2023-03-30T12:14:01.538Z,4912
2023-03-30T12:15:01.551Z,4936
2023-03-30T12:16:01.597Z,4904
2023-03-30T12:17:01.551Z,4904
2023-03-30T12:18:01.559Z,4891
2023-03-30T12:19:01.533Z,4921
2023-03-30T12:20:01.562Z,4921
2023-03-30T12:21:01.565Z,4936
2023-03-30T12:22:01.566Z,4985
2023-03-30T12:23:01.537Z,5100
2023-03-30T12:24:01.540Z,5219
2023-03-30T12:25:01.557Z,5266
2023-03-30T12:26:01.717Z,5360
2023-03-30T12:27:06.144Z,5430
2023-03-30T12:28:01.538Z,5503
2023-03-30T12:30:03.449Z,5730
2023-03-30T12:31:01.537Z,5929
2023-03-30T12:32:01.595Z,6159
2023-03-30T12:33:01.615Z,6423
2023-03-30T12:34:01.540Z,6722
2023-03-30T12:35:01.535Z,7039
2023-03-30T12:36:01.642Z,7299
2023-03-30T12:37:01.559Z,7570
2023-03-30T12:38:01.542Z,8016
2023-03-30T12:39:01.537Z,8043
2023-03-30T12:40:01.536Z,8113
2023-03-30T12:41:01.544Z,8097
2023-03-30T12:42:01.641Z,7912
2023-03-30T12:43:01.558Z,7717
2023-03-30T12:44:01.558Z,7511
2023-03-30T12:45:01.553Z,7376
2023-03-30T12:46:01.620Z,7396
2023-03-30T12:47:02.942Z,7284
2023-03-30T12:48:01.605Z,7286
2023-03-30T12:49:03.608Z,7492
2023-03-30T12:50:01.551Z,7651
2023-03-30T12:51:01.560Z,7874
2023-03-30T12:52:01.755Z,7953
2023-03-30T12:53:03.823Z,7938
2023-03-30T12:54:01.572Z,8080
2023-03-30T12:55:01.536Z,8252
2023-03-30T12:56:01.542Z,8497
2023-03-30T12:57:01.621Z,8618
2023-03-30T12:58:01.544Z,8991
2023-03-30T12:59:01.539Z,9837
2023-03-30T13:00:01.536Z,10321
2023-03-30T13:01:01.589Z,12260
2023-03-30T13:02:01.606Z,16260
2023-03-30T13:03:01.587Z,17115
2023-03-30T13:04:01.562Z,15860
2023-03-30T13:05:01.535Z,18481
2023-03-30T13:06:01.558Z,16811
2023-03-30T13:07:01.552Z,16876
2023-03-30T13:08:01.536Z,16961
2023-03-30T13:09:01.526Z,16961
2023-03-30T13:10:04.023Z,19753
2023-03-30T13:11:01.524Z,13460
2023-03-30T13:12:01.539Z,18361
2023-03-30T13:13:01.548Z,12583
2023-03-30T13:14:01.536Z,11838
2023-03-30T13:15:01.537Z,14518
2023-03-30T13:16:01.527Z,13672
2023-03-30T13:17:01.614Z,12640
2023-03-30T13:18:01.572Z,12017
2023-03-30T13:19:01.535Z,11833
2023-03-30T13:20:01.534Z,9496
2023-03-30T13:21:01.551Z,9540
2023-03-30T13:22:01.549Z,9588
2023-03-30T13:23:01.541Z,11038
2023-03-30T13:24:01.544Z,12115
2023-03-30T13:25:01.545Z,11212
2023-03-30T13:26:01.597Z,11647
2023-03-30T13:27:01.553Z,12198
2023-03-30T13:28:01.543Z,10596
2023-03-30T13:29:01.540Z,10379
2023-03-30T13:30:01.552Z,9192
2023-03-30T13:31:01.597Z,8487
2023-03-30T13:32:01.554Z,7758
2023-03-30T13:33:01.546Z,6976
2023-03-30T13:34:01.536Z,6312
2023-03-30T13:35:07.939Z,6312
2023-03-30T13:36:06.060Z,5817
2023-03-30T13:37:05.787Z,5883
2023-03-30T13:38:05.782Z,6217
2023-03-30T13:39:05.773Z,6571
2023-03-30T13:40:05.812Z,7033
2023-03-30T13:41:05.766Z,8399
2023-03-30T13:42:05.782Z,8497
2023-03-30T13:43:05.772Z,10152
2023-03-30T13:44:05.784Z,12690
2023-03-30T13:45:05.761Z,10821
2023-03-30T13:46:16.417Z,11466